sensor_id;sensor_type;location;lat;lon;timestamp;temperature;humidity
72338;DHT22;60294;64.134;-21.862;2022-07-29T00:01:59;9.10;87.20
72338;DHT22;60294;64.134;-21.862;2022-07-29T00:04:25;9.00;87.30
72338;DHT22;60294;64.134;-21.862;2022-07-29T00:06:50;9.00;87.60
72338;DHT22;60294;64.134;-21.862;2022-07-29T00:09:16;8.90;87.70
72338;DHT22;60294;64.134;-21.862;2022-07-29T00:11:42;8.90;88.20
72338;DHT22;60294;64.134;-21.862;2022-07-29T00:14:08;8.90;88.80
72338;DHT22;60294;64.134;-21.862;2022-07-29T00:16:35;8.90;88.40
72338;DHT22;60294;64.134;-21.862;2022-07-29T00:19:00;9.00;89.10
72338;DHT22;60294;64.134;-21.862;2022-07-29T00:21:26;9.00;88.60
72338;DHT22;60294;64.134;-21.862;2022-07-29T00:23:52;9.00;88.40
72338;DHT22;60294;64.134;-21.862;2022-07-29T00:26:18;9.00;89.00
72338;DHT22;60294;64.134;-21.862;2022-07-29T00:28:44;9.00;88.50
72338;DHT22;60294;64.134;-21.862;2022-07-29T00:31:10;9.00;88.40
72338;DHT22;60294;64.134;-21.862;2022-07-29T00:33:36;9.00;88.40
72338;DHT22;60294;64.134;-21.862;2022-07-29T00:36:02;9.10;88.60
72338;DHT22;60294;64.134;-21.862;2022-07-29T00:38:27;9.10;88.30
72338;DHT22;60294;64.134;-21.862;2022-07-29T00:40:53;9.10;87.90
72338;DHT22;60294;64.134;-21.862;2022-07-29T00:43:19;9.10;88.40
72338;DHT22;60294;64.134;-21.862;2022-07-29T00:45:45;9.10;88.10
72338;DHT22;60294;64.134;-21.862;2022-07-29T00:48:11;9.10;88.10
72338;DHT22;60294;64.134;-21.862;2022-07-29T00:50:37;9.10;87.90
72338;DHT22;60294;64.134;-21.862;2022-07-29T00:53:05;9.10;87.40
72338;DHT22;60294;64.134;-21.862;2022-07-29T00:55:31;9.20;87.80
72338;DHT22;60294;64.134;-21.862;2022-07-29T00:57:58;9.30;87.50
72338;DHT22;60294;64.134;-21.862;2022-07-29T01:00:25;9.30;87.30
72338;DHT22;60294;64.134;-21.862;2022-07-29T01:02:52;9.30;87.10
72338;DHT22;60294;64.134;-21.862;2022-07-29T01:05:22;9.30;87.30
72338;DHT22;60294;64.134;-21.862;2022-07-29T01:07:51;9.40;87.40
72338;DHT22;60294;64.134;-21.862;2022-07-29T01:10:18;9.40;87.40
72338;DHT22;60294;64.134;-21.862;2022-07-29T01:12:49;9.40;87.60
72338;DHT22;60294;64.134;-21.862;2022-07-29T01:15:15;9.30;87.80
72338;DHT22;60294;64.134;-21.862;2022-07-29T01:18:07;9.40;87.80
72338;DHT22;60294;64.134;-21.862;2022-07-29T01:32:18;9.30;87.70
72338;DHT22;60294;64.134;-21.862;2022-07-29T01:35:03;9.30;87.60
72338;DHT22;60294;64.134;-21.862;2022-07-29T01:37:43;9.30;87.80
72338;DHT22;60294;64.134;-21.862;2022-07-29T01:40:37;9.30;88.00
72338;DHT22;60294;64.134;-21.862;2022-07-29T01:43:10;9.30;88.10
72338;DHT22;60294;64.134;-21.862;2022-07-29T01:45:57;9.30;88.30
72338;DHT22;60294;64.134;-21.862;2022-07-29T01:48:38;9.30;88.00
72338;DHT22;60294;64.134;-21.862;2022-07-29T01:51:21;9.40;88.30
72338;DHT22;60294;64.134;-21.862;2022-07-29T01:54:20;9.40;88.20
72338;DHT22;60294;64.134;-21.862;2022-07-29T01:56:51;9.40;88.10
72338;DHT22;60294;64.134;-21.862;2022-07-29T01:59:19;9.50;88.10
72338;DHT22;60294;64.134;-21.862;2022-07-29T02:01:47;9.40;88.30
72338;DHT22;60294;64.134;-21.862;2022-07-29T02:04:16;9.50;88.10
72338;DHT22;60294;64.134;-21.862;2022-07-29T02:06:44;9.50;88.00
72338;DHT22;60294;64.134;-21.862;2022-07-29T02:09:13;9.40;87.80
72338;DHT22;60294;64.134;-21.862;2022-07-29T02:11:43;9.40;88.20
72338;DHT22;60294;64.134;-21.862;2022-07-29T02:14:14;9.50;87.90
72338;DHT22;60294;64.134;-21.862;2022-07-29T02:16:42;9.40;88.00
72338;DHT22;60294;64.134;-21.862;2022-07-29T02:19:10;9.40;88.10
72338;DHT22;60294;64.134;-21.862;2022-07-29T02:21:38;9.50;88.40
72338;DHT22;60294;64.134;-21.862;2022-07-29T02:24:04;9.40;88.40
72338;DHT22;60294;64.134;-21.862;2022-07-29T02:26:32;9.50;88.60
72338;DHT22;60294;64.134;-21.862;2022-07-29T02:28:59;9.50;88.20
72338;DHT22;60294;64.134;-21.862;2022-07-29T02:31:30;9.60;88.20
72338;DHT22;60294;64.134;-21.862;2022-07-29T02:33:58;9.60;88.30
72338;DHT22;60294;64.134;-21.862;2022-07-29T02:36:26;9.60;88.30
72338;DHT22;60294;64.134;-21.862;2022-07-29T02:38:55;9.40;88.00
72338;DHT22;60294;64.134;-21.862;2022-07-29T02:41:28;9.40;87.60
72338;DHT22;60294;64.134;-21.862;2022-07-29T02:44:06;9.40;88.60
72338;DHT22;60294;64.134;-21.862;2022-07-29T02:46:36;9.40;88.40
72338;DHT22;60294;64.134;-21.862;2022-07-29T02:49:27;9.40;88.50
72338;DHT22;60294;64.134;-21.862;2022-07-29T02:55:07;9.50;88.50
72338;DHT22;60294;64.134;-21.862;2022-07-29T02:57:59;9.50;88.30
72338;DHT22;60294;64.134;-21.862;2022-07-29T03:00:29;9.30;88.70
72338;DHT22;60294;64.134;-21.862;2022-07-29T03:02:58;9.40;88.80
72338;DHT22;60294;64.134;-21.862;2022-07-29T03:05:25;9.30;89.00
72338;DHT22;60294;64.134;-21.862;2022-07-29T03:07:55;9.40;89.30
72338;DHT22;60294;64.134;-21.862;2022-07-29T03:10:24;9.40;89.40
72338;DHT22;60294;64.134;-21.862;2022-07-29T03:12:51;9.40;89.20
72338;DHT22;60294;64.134;-21.862;2022-07-29T03:15:18;9.50;89.20
72338;DHT22;60294;64.134;-21.862;2022-07-29T03:17:44;9.50;89.10
72338;DHT22;60294;64.134;-21.862;2022-07-29T03:20:11;9.50;89.20
72338;DHT22;60294;64.134;-21.862;2022-07-29T03:22:42;9.50;89.20
72338;DHT22;60294;64.134;-21.862;2022-07-29T03:25:13;9.50;89.10
72338;DHT22;60294;64.134;-21.862;2022-07-29T03:27:40;9.40;88.70
72338;DHT22;60294;64.134;-21.862;2022-07-29T03:30:06;9.50;89.00
72338;DHT22;60294;64.134;-21.862;2022-07-29T03:32:33;9.60;89.00
72338;DHT22;60294;64.134;-21.862;2022-07-29T03:34:59;9.50;88.90
72338;DHT22;60294;64.134;-21.862;2022-07-29T03:37:25;9.60;89.00
72338;DHT22;60294;64.134;-21.862;2022-07-29T03:39:52;9.60;89.30
72338;DHT22;60294;64.134;-21.862;2022-07-29T03:42:24;9.50;89.30
72338;DHT22;60294;64.134;-21.862;2022-07-29T03:44:52;9.60;89.30
72338;DHT22;60294;64.134;-21.862;2022-07-29T03:47:22;9.50;89.00
72338;DHT22;60294;64.134;-21.862;2022-07-29T03:49:50;9.60;89.00
72338;DHT22;60294;64.134;-21.862;2022-07-29T03:52:18;9.50;89.00
72338;DHT22;60294;64.134;-21.862;2022-07-29T03:54:44;9.60;89.10
72338;DHT22;60294;64.134;-21.862;2022-07-29T03:57:11;9.60;89.00
72338;DHT22;60294;64.134;-21.862;2022-07-29T03:59:38;9.50;89.10
72338;DHT22;60294;64.134;-21.862;2022-07-29T04:02:05;9.50;89.10
72338;DHT22;60294;64.134;-21.862;2022-07-29T04:04:34;9.50;89.30
72338;DHT22;60294;64.134;-21.862;2022-07-29T04:07:01;9.50;89.20
72338;DHT22;60294;64.134;-21.862;2022-07-29T04:09:26;9.50;89.30
72338;DHT22;60294;64.134;-21.862;2022-07-29T04:11:52;9.60;89.30
72338;DHT22;60294;64.134;-21.862;2022-07-29T04:14:18;9.50;89.20
72338;DHT22;60294;64.134;-21.862;2022-07-29T04:16:44;9.50;89.30
72338;DHT22;60294;64.134;-21.862;2022-07-29T04:19:10;9.50;89.40
72338;DHT22;60294;64.134;-21.862;2022-07-29T04:21:40;9.40;89.20
72338;DHT22;60294;64.134;-21.862;2022-07-29T04:24:07;9.40;89.80
72338;DHT22;60294;64.134;-21.862;2022-07-29T04:26:34;9.40;89.60
72338;DHT22;60294;64.134;-21.862;2022-07-29T04:29:00;9.40;89.60
72338;DHT22;60294;64.134;-21.862;2022-07-29T04:31:26;9.50;89.40
72338;DHT22;60294;64.134;-21.862;2022-07-29T04:33:51;9.50;89.30
72338;DHT22;60294;64.134;-21.862;2022-07-29T04:36:17;9.50;89.40
72338;DHT22;60294;64.134;-21.862;2022-07-29T04:38:43;9.50;89.10
72338;DHT22;60294;64.134;-21.862;2022-07-29T04:41:09;9.50;89.40
72338;DHT22;60294;64.134;-21.862;2022-07-29T04:43:35;9.50;89.10
72338;DHT22;60294;64.134;-21.862;2022-07-29T04:46:05;9.50;89.40
72338;DHT22;60294;64.134;-21.862;2022-07-29T04:48:31;9.50;89.70
72338;DHT22;60294;64.134;-21.862;2022-07-29T04:50:57;9.50;89.50
72338;DHT22;60294;64.134;-21.862;2022-07-29T04:53:23;9.50;89.50
72338;DHT22;60294;64.134;-21.862;2022-07-29T04:55:49;9.50;89.10
72338;DHT22;60294;64.134;-21.862;2022-07-29T04:58:15;9.50;89.50
72338;DHT22;60294;64.134;-21.862;2022-07-29T05:00:41;9.60;89.40
72338;DHT22;60294;64.134;-21.862;2022-07-29T05:03:06;9.60;89.20
72338;DHT22;60294;64.134;-21.862;2022-07-29T05:05:32;9.60;89.10
72338;DHT22;60294;64.134;-21.862;2022-07-29T05:07:58;9.60;89.10
72338;DHT22;60294;64.134;-21.862;2022-07-29T05:10:24;9.60;89.10
72338;DHT22;60294;64.134;-21.862;2022-07-29T05:12:51;9.60;89.20
72338;DHT22;60294;64.134;-21.862;2022-07-29T05:15:16;9.60;89.00
72338;DHT22;60294;64.134;-21.862;2022-07-29T05:17:43;9.70;89.00
72338;DHT22;60294;64.134;-21.862;2022-07-29T05:20:09;9.70;89.00
72338;DHT22;60294;64.134;-21.862;2022-07-29T05:22:36;9.70;89.20
72338;DHT22;60294;64.134;-21.862;2022-07-29T05:25:02;9.70;88.90
72338;DHT22;60294;64.134;-21.862;2022-07-29T05:27:28;9.70;88.80
72338;DHT22;60294;64.134;-21.862;2022-07-29T05:29:54;9.70;89.00
72338;DHT22;60294;64.134;-21.862;2022-07-29T05:32:20;9.80;89.00
72338;DHT22;60294;64.134;-21.862;2022-07-29T05:34:45;9.80;88.80
72338;DHT22;60294;64.134;-21.862;2022-07-29T05:37:11;9.80;88.60
72338;DHT22;60294;64.134;-21.862;2022-07-29T05:39:39;9.90;88.50
72338;DHT22;60294;64.134;-21.862;2022-07-29T05:42:11;9.90;88.50
72338;DHT22;60294;64.134;-21.862;2022-07-29T05:44:38;9.90;88.60
72338;DHT22;60294;64.134;-21.862;2022-07-29T05:47:04;10.00;88.60
72338;DHT22;60294;64.134;-21.862;2022-07-29T05:49:30;10.00;88.50
72338;DHT22;60294;64.134;-21.862;2022-07-29T05:51:56;10.10;88.40
72338;DHT22;60294;64.134;-21.862;2022-07-29T05:54:22;10.10;88.10
72338;DHT22;60294;64.134;-21.862;2022-07-29T05:56:48;10.10;88.00
72338;DHT22;60294;64.134;-21.862;2022-07-29T05:59:13;10.10;87.90
72338;DHT22;60294;64.134;-21.862;2022-07-29T06:01:39;10.10;87.80
72338;DHT22;60294;64.134;-21.862;2022-07-29T06:04:08;10.10;87.60
72338;DHT22;60294;64.134;-21.862;2022-07-29T06:06:34;10.20;87.80
72338;DHT22;60294;64.134;-21.862;2022-07-29T06:09:01;10.20;88.00
72338;DHT22;60294;64.134;-21.862;2022-07-29T06:11:28;10.20;87.70
72338;DHT22;60294;64.134;-21.862;2022-07-29T06:13:54;10.30;87.60
72338;DHT22;60294;64.134;-21.862;2022-07-29T06:16:20;10.30;87.50
72338;DHT22;60294;64.134;-21.862;2022-07-29T06:18:46;10.30;87.20
72338;DHT22;60294;64.134;-21.862;2022-07-29T06:21:12;10.30;87.00
72338;DHT22;60294;64.134;-21.862;2022-07-29T06:23:38;10.40;87.20
72338;DHT22;60294;64.134;-21.862;2022-07-29T06:26:04;10.40;86.70
72338;DHT22;60294;64.134;-21.862;2022-07-29T06:28:30;10.40;86.40
72338;DHT22;60294;64.134;-21.862;2022-07-29T06:30:55;10.50;86.00
72338;DHT22;60294;64.134;-21.862;2022-07-29T06:33:21;10.50;86.20
72338;DHT22;60294;64.134;-21.862;2022-07-29T06:35:47;10.60;86.00
72338;DHT22;60294;64.134;-21.862;2022-07-29T06:38:14;10.60;86.10
72338;DHT22;60294;64.134;-21.862;2022-07-29T06:40:44;10.60;86.40
72338;DHT22;60294;64.134;-21.862;2022-07-29T06:43:33;10.60;86.20
72338;DHT22;60294;64.134;-21.862;2022-07-29T06:46:04;10.70;86.10
72338;DHT22;60294;64.134;-21.862;2022-07-29T06:48:31;10.70;86.10
72338;DHT22;60294;64.134;-21.862;2022-07-29T06:50:57;10.80;85.70
72338;DHT22;60294;64.134;-21.862;2022-07-29T06:53:23;10.70;85.50
72338;DHT22;60294;64.134;-21.862;2022-07-29T06:55:49;10.70;85.30
72338;DHT22;60294;64.134;-21.862;2022-07-29T06:58:16;10.80;85.20
72338;DHT22;60294;64.134;-21.862;2022-07-29T07:00:45;10.90;85.00
72338;DHT22;60294;64.134;-21.862;2022-07-29T07:03:11;11.00;85.10
72338;DHT22;60294;64.134;-21.862;2022-07-29T07:05:37;11.10;84.90
72338;DHT22;60294;64.134;-21.862;2022-07-29T07:08:03;11.00;84.70
72338;DHT22;60294;64.134;-21.862;2022-07-29T07:10:29;11.00;84.40
72338;DHT22;60294;64.134;-21.862;2022-07-29T07:12:55;11.00;85.10
72338;DHT22;60294;64.134;-21.862;2022-07-29T07:15:21;10.90;84.10
72338;DHT22;60294;64.134;-21.862;2022-07-29T07:17:48;11.00;84.50
72338;DHT22;60294;64.134;-21.862;2022-07-29T07:20:15;11.10;84.60
72338;DHT22;60294;64.134;-21.862;2022-07-29T07:22:41;11.20;84.70
72338;DHT22;60294;64.134;-21.862;2022-07-29T07:25:07;11.30;84.30
72338;DHT22;60294;64.134;-21.862;2022-07-29T07:27:33;11.40;83.70
72338;DHT22;60294;64.134;-21.862;2022-07-29T07:29:59;11.30;83.20
72338;DHT22;60294;64.134;-21.862;2022-07-29T07:32:24;11.40;83.00
72338;DHT22;60294;64.134;-21.862;2022-07-29T07:34:50;11.50;83.60
72338;DHT22;60294;64.134;-21.862;2022-07-29T07:37:16;11.60;83.30
72338;DHT22;60294;64.134;-21.862;2022-07-29T07:39:44;11.60;83.10
72338;DHT22;60294;64.134;-21.862;2022-07-29T07:42:10;11.60;82.20
72338;DHT22;60294;64.134;-21.862;2022-07-29T07:44:38;11.80;82.20
72338;DHT22;60294;64.134;-21.862;2022-07-29T07:47:05;11.90;82.30
72338;DHT22;60294;64.134;-21.862;2022-07-29T07:49:31;11.90;81.90
72338;DHT22;60294;64.134;-21.862;2022-07-29T07:51:56;12.00;81.80
72338;DHT22;60294;64.134;-21.862;2022-07-29T07:54:22;11.90;80.70
72338;DHT22;60294;64.134;-21.862;2022-07-29T07:56:48;12.00;80.70
72338;DHT22;60294;64.134;-21.862;2022-07-29T07:59:16;12.10;81.10
72338;DHT22;60294;64.134;-21.862;2022-07-29T08:01:42;12.10;80.60
72338;DHT22;60294;64.134;-21.862;2022-07-29T08:04:08;12.30;80.10
72338;DHT22;60294;64.134;-21.862;2022-07-29T08:06:34;12.40;80.00
72338;DHT22;60294;64.134;-21.862;2022-07-29T08:09:03;12.30;79.80
72338;DHT22;60294;64.134;-21.862;2022-07-29T08:11:29;12.40;79.80
72338;DHT22;60294;64.134;-21.862;2022-07-29T08:13:54;12.40;80.00
72338;DHT22;60294;64.134;-21.862;2022-07-29T08:16:20;12.60;79.40
72338;DHT22;60294;64.134;-21.862;2022-07-29T08:18:47;12.70;79.20
72338;DHT22;60294;64.134;-21.862;2022-07-29T08:21:14;12.90;78.60
72338;DHT22;60294;64.134;-21.862;2022-07-29T08:23:41;13.10;77.90
72338;DHT22;60294;64.134;-21.862;2022-07-29T08:26:19;13.10;76.70
72338;DHT22;60294;64.134;-21.862;2022-07-29T08:28:46;12.90;77.10
72338;DHT22;60294;64.134;-21.862;2022-07-29T08:31:15;12.60;75.50
72338;DHT22;60294;64.134;-21.862;2022-07-29T08:33:42;12.40;76.60
72338;DHT22;60294;64.134;-21.862;2022-07-29T08:36:08;12.40;77.10
72338;DHT22;60294;64.134;-21.862;2022-07-29T08:38:34;12.20;76.50
72338;DHT22;60294;64.134;-21.862;2022-07-29T08:41:00;12.20;77.30
72338;DHT22;60294;64.134;-21.862;2022-07-29T08:43:28;12.20;78.00
72338;DHT22;60294;64.134;-21.862;2022-07-29T08:45:54;12.20;78.60
72338;DHT22;60294;64.134;-21.862;2022-07-29T08:48:22;12.20;77.80
72338;DHT22;60294;64.134;-21.862;2022-07-29T08:50:53;12.40;77.80
72338;DHT22;60294;64.134;-21.862;2022-07-29T08:53:21;12.60;77.10
72338;DHT22;60294;64.134;-21.862;2022-07-29T08:55:50;12.60;75.00
72338;DHT22;60294;64.134;-21.862;2022-07-29T08:58:17;12.20;74.80
72338;DHT22;60294;64.134;-21.862;2022-07-29T09:00:52;12.30;75.10
72338;DHT22;60294;64.134;-21.862;2022-07-29T09:03:19;12.70;74.80
72338;DHT22;60294;64.134;-21.862;2022-07-29T09:05:46;12.80;75.50
72338;DHT22;60294;64.134;-21.862;2022-07-29T09:08:16;12.70;75.00
72338;DHT22;60294;64.134;-21.862;2022-07-29T09:10:43;12.80;74.20
72338;DHT22;60294;64.134;-21.862;2022-07-29T09:13:10;12.70;73.50
72338;DHT22;60294;64.134;-21.862;2022-07-29T09:15:35;12.40;73.30
72338;DHT22;60294;64.134;-21.862;2022-07-29T09:18:01;12.40;73.50
72338;DHT22;60294;64.134;-21.862;2022-07-29T09:20:28;12.10;74.90
72338;DHT22;60294;64.134;-21.862;2022-07-29T09:23:13;12.50;74.10
72338;DHT22;60294;64.134;-21.862;2022-07-29T09:25:40;12.50;72.70
72338;DHT22;60294;64.134;-21.862;2022-07-29T09:28:16;12.10;71.20
72338;DHT22;60294;64.134;-21.862;2022-07-29T09:30:57;12.10;71.70
72338;DHT22;60294;64.134;-21.862;2022-07-29T09:33:33;12.20;72.20
72338;DHT22;60294;64.134;-21.862;2022-07-29T09:36:09;12.50;72.00
72338;DHT22;60294;64.134;-21.862;2022-07-29T09:38:35;12.50;69.80
72338;DHT22;60294;64.134;-21.862;2022-07-29T09:41:04;12.60;71.20
72338;DHT22;60294;64.134;-21.862;2022-07-29T09:43:30;12.70;69.60
72338;DHT22;60294;64.134;-21.862;2022-07-29T09:46:09;12.60;69.70
72338;DHT22;60294;64.134;-21.862;2022-07-29T09:48:35;12.60;69.30
72338;DHT22;60294;64.134;-21.862;2022-07-29T09:51:01;12.70;69.30
72338;DHT22;60294;64.134;-21.862;2022-07-29T09:53:35;12.70;69.40
72338;DHT22;60294;64.134;-21.862;2022-07-29T09:56:01;12.90;69.60
72338;DHT22;60294;64.134;-21.862;2022-07-29T09:58:27;13.00;69.20
72338;DHT22;60294;64.134;-21.862;2022-07-29T10:00:54;13.10;68.40
72338;DHT22;60294;64.134;-21.862;2022-07-29T10:03:21;13.10;68.80
72338;DHT22;60294;64.134;-21.862;2022-07-29T10:06:11;12.90;69.80
72338;DHT22;60294;64.134;-21.862;2022-07-29T10:08:39;13.10;68.80
72338;DHT22;60294;64.134;-21.862;2022-07-29T10:11:15;13.20;67.90
72338;DHT22;60294;64.134;-21.862;2022-07-29T10:13:42;13.20;68.10
72338;DHT22;60294;64.134;-21.862;2022-07-29T10:16:09;13.20;67.80
72338;DHT22;60294;64.134;-21.862;2022-07-29T10:18:35;13.30;67.60
72338;DHT22;60294;64.134;-21.862;2022-07-29T10:21:01;13.40;68.10
72338;DHT22;60294;64.134;-21.862;2022-07-29T10:23:30;13.30;67.30
72338;DHT22;60294;64.134;-21.862;2022-07-29T10:25:57;13.10;66.90
72338;DHT22;60294;64.134;-21.862;2022-07-29T10:28:23;13.20;67.00
72338;DHT22;60294;64.134;-21.862;2022-07-29T10:30:50;13.30;65.10
72338;DHT22;60294;64.134;-21.862;2022-07-29T10:40:00;13.00;65.70
72338;DHT22;60294;64.134;-21.862;2022-07-29T10:42:05;13.20;66.10
72338;DHT22;60294;64.134;-21.862;2022-07-29T10:44:39;13.90;65.20
72338;DHT22;60294;64.134;-21.862;2022-07-29T10:47:06;14.20;65.10
72338;DHT22;60294;64.134;-21.862;2022-07-29T10:49:32;14.50;61.90
72338;DHT22;60294;64.134;-21.862;2022-07-29T10:52:00;14.60;60.40
72338;DHT22;60294;64.134;-21.862;2022-07-29T10:57:37;14.50;60.70
72338;DHT22;60294;64.134;-21.862;2022-07-29T11:02:40;15.10;58.70
72338;DHT22;60294;64.134;-21.862;2022-07-29T11:08:18;15.10;58.10
72338;DHT22;60294;64.134;-21.862;2022-07-29T11:10:26;15.10;59.10
72338;DHT22;60294;64.134;-21.862;2022-07-29T11:12:52;14.90;57.40
72338;DHT22;60294;64.134;-21.862;2022-07-29T11:15:20;15.10;59.20
72338;DHT22;60294;64.134;-21.862;2022-07-29T11:23:32;15.50;58.20
72338;DHT22;60294;64.134;-21.862;2022-07-29T11:29:03;15.10;57.60
72338;DHT22;60294;64.134;-21.862;2022-07-29T11:31:43;15.00;57.10
72338;DHT22;60294;64.134;-21.862;2022-07-29T11:34:38;15.20;57.40
72338;DHT22;60294;64.134;-21.862;2022-07-29T11:39:45;15.00;57.30
72338;DHT22;60294;64.134;-21.862;2022-07-29T11:47:27;14.80;57.20
72338;DHT22;60294;64.134;-21.862;2022-07-29T11:49:55;14.90;56.70
72338;DHT22;60294;64.134;-21.862;2022-07-29T11:52:23;15.10;57.10
72338;DHT22;60294;64.134;-21.862;2022-07-29T11:54:50;15.00;57.50
72338;DHT22;60294;64.134;-21.862;2022-07-29T11:57:17;14.80;57.50
72338;DHT22;60294;64.134;-21.862;2022-07-29T11:59:46;14.50;57.90
72338;DHT22;60294;64.134;-21.862;2022-07-29T12:02:13;14.60;58.30
72338;DHT22;60294;64.134;-21.862;2022-07-29T12:04:53;14.80;58.50
72338;DHT22;60294;64.134;-21.862;2022-07-29T12:07:27;14.60;57.80
72338;DHT22;60294;64.134;-21.862;2022-07-29T12:09:53;14.70;57.20
72338;DHT22;60294;64.134;-21.862;2022-07-29T12:12:20;14.50;56.10
72338;DHT22;60294;64.134;-21.862;2022-07-29T12:14:46;14.70;57.80
72338;DHT22;60294;64.134;-21.862;2022-07-29T12:19:55;14.90;56.20
72338;DHT22;60294;64.134;-21.862;2022-07-29T12:22:28;15.50;55.40
72338;DHT22;60294;64.134;-21.862;2022-07-29T12:24:55;15.40;54.80
72338;DHT22;60294;64.134;-21.862;2022-07-29T12:27:22;15.20;53.90
72338;DHT22;60294;64.134;-21.862;2022-07-29T12:29:58;15.50;53.70
72338;DHT22;60294;64.134;-21.862;2022-07-29T12:32:58;15.60;53.30
72338;DHT22;60294;64.134;-21.862;2022-07-29T12:35:24;15.10;52.70
72338;DHT22;60294;64.134;-21.862;2022-07-29T12:37:51;14.90;53.10
72338;DHT22;60294;64.134;-21.862;2022-07-29T12:40:18;14.70;54.40
72338;DHT22;60294;64.134;-21.862;2022-07-29T12:43:05;14.80;54.10
72338;DHT22;60294;64.134;-21.862;2022-07-29T12:45:33;15.30;54.30
72338;DHT22;60294;64.134;-21.862;2022-07-29T12:47:58;15.70;54.00
72338;DHT22;60294;64.134;-21.862;2022-07-29T12:50:24;15.80;52.60
72338;DHT22;60294;64.134;-21.862;2022-07-29T12:52:51;15.80;53.10
72338;DHT22;60294;64.134;-21.862;2022-07-29T12:55:43;16.00;51.80
72338;DHT22;60294;64.134;-21.862;2022-07-29T12:58:10;16.10;51.40
72338;DHT22;60294;64.134;-21.862;2022-07-29T13:00:36;16.30;51.60
72338;DHT22;60294;64.134;-21.862;2022-07-29T13:03:02;16.30;50.10
72338;DHT22;60294;64.134;-21.862;2022-07-29T13:05:44;16.40;49.60
72338;DHT22;60294;64.134;-21.862;2022-07-29T13:08:15;16.50;49.80
72338;DHT22;60294;64.134;-21.862;2022-07-29T13:10:41;16.30;51.30
72338;DHT22;60294;64.134;-21.862;2022-07-29T13:13:12;16.00;49.80
72338;DHT22;60294;64.134;-21.862;2022-07-29T13:15:41;16.00;50.80
72338;DHT22;60294;64.134;-21.862;2022-07-29T13:18:30;16.20;51.00
72338;DHT22;60294;64.134;-21.862;2022-07-29T13:20:57;16.10;50.60
72338;DHT22;60294;64.134;-21.862;2022-07-29T13:23:23;16.10;50.40
72338;DHT22;60294;64.134;-21.862;2022-07-29T13:25:49;15.90;50.50
72338;DHT22;60294;64.134;-21.862;2022-07-29T13:28:15;15.80;50.30
72338;DHT22;60294;64.134;-21.862;2022-07-29T13:30:41;15.50;50.30
72338;DHT22;60294;64.134;-21.862;2022-07-29T13:33:07;15.70;52.00
72338;DHT22;60294;64.134;-21.862;2022-07-29T13:35:32;15.70;52.40
72338;DHT22;60294;64.134;-21.862;2022-07-29T13:37:59;15.80;51.20
72338;DHT22;60294;64.134;-21.862;2022-07-29T13:40:24;15.80;52.00
72338;DHT22;60294;64.134;-21.862;2022-07-29T13:42:51;15.80;51.30
72338;DHT22;60294;64.134;-21.862;2022-07-29T13:45:17;15.60;51.50
72338;DHT22;60294;64.134;-21.862;2022-07-29T13:47:43;16.10;50.70
72338;DHT22;60294;64.134;-21.862;2022-07-29T13:50:09;16.70;49.50
72338;DHT22;60294;64.134;-21.862;2022-07-29T13:52:36;17.10;46.30
72338;DHT22;60294;64.134;-21.862;2022-07-29T13:55:04;16.90;47.90
72338;DHT22;60294;64.134;-21.862;2022-07-29T13:57:30;17.00;49.50
72338;DHT22;60294;64.134;-21.862;2022-07-29T13:59:56;16.70;49.40
72338;DHT22;60294;64.134;-21.862;2022-07-29T14:02:22;16.60;49.00
72338;DHT22;60294;64.134;-21.862;2022-07-29T14:04:48;16.30;50.00
72338;DHT22;60294;64.134;-21.862;2022-07-29T14:07:13;16.10;50.70
72338;DHT22;60294;64.134;-21.862;2022-07-29T14:09:39;16.20;50.10
72338;DHT22;60294;64.134;-21.862;2022-07-29T14:12:05;16.20;49.80
72338;DHT22;60294;64.134;-21.862;2022-07-29T14:14:31;16.20;49.50
72338;DHT22;60294;64.134;-21.862;2022-07-29T14:16:58;16.10;50.20
72338;DHT22;60294;64.134;-21.862;2022-07-29T14:19:24;16.20;49.30
72338;DHT22;60294;64.134;-21.862;2022-07-29T14:21:50;16.50;50.10
72338;DHT22;60294;64.134;-21.862;2022-07-29T14:24:16;16.40;49.40
72338;DHT22;60294;64.134;-21.862;2022-07-29T14:26:41;16.30;48.80
72338;DHT22;60294;64.134;-21.862;2022-07-29T14:29:07;16.50;48.60
72338;DHT22;60294;64.134;-21.862;2022-07-29T14:31:33;16.90;48.00
72338;DHT22;60294;64.134;-21.862;2022-07-29T14:33:59;16.80;47.20
72338;DHT22;60294;64.134;-21.862;2022-07-29T14:36:25;17.20;46.90
72338;DHT22;60294;64.134;-21.862;2022-07-29T14:38:50;17.20;47.10
72338;DHT22;60294;64.134;-21.862;2022-07-29T14:41:17;17.60;47.90
72338;DHT22;60294;64.134;-21.862;2022-07-29T14:43:43;17.50;46.00
72338;DHT22;60294;64.134;-21.862;2022-07-29T14:46:09;18.60;44.00
72338;DHT22;60294;64.134;-21.862;2022-07-29T14:48:35;19.40;43.60
72338;DHT22;60294;64.134;-21.862;2022-07-29T14:51:00;18.50;43.90
72338;DHT22;60294;64.134;-21.862;2022-07-29T14:53:26;18.30;44.10
72338;DHT22;60294;64.134;-21.862;2022-07-29T14:55:52;18.20;46.60
72338;DHT22;60294;64.134;-21.862;2022-07-29T14:58:18;18.10;45.10
72338;DHT22;60294;64.134;-21.862;2022-07-29T15:00:45;18.10;45.50
72338;DHT22;60294;64.134;-21.862;2022-07-29T15:03:10;18.20;45.60
72338;DHT22;60294;64.134;-21.862;2022-07-29T15:05:36;19.20;43.90
72338;DHT22;60294;64.134;-21.862;2022-07-29T15:08:02;19.60;42.40
72338;DHT22;60294;64.134;-21.862;2022-07-29T15:10:28;19.60;43.10
72338;DHT22;60294;64.134;-21.862;2022-07-29T15:12:55;20.30;41.30
72338;DHT22;60294;64.134;-21.862;2022-07-29T15:15:21;20.00;40.40
72338;DHT22;60294;64.134;-21.862;2022-07-29T15:17:47;19.70;40.30
72338;DHT22;60294;64.134;-21.862;2022-07-29T15:20:13;19.10;42.70
72338;DHT22;60294;64.134;-21.862;2022-07-29T15:22:39;18.80;43.40
72338;DHT22;60294;64.134;-21.862;2022-07-29T15:25:07;18.60;43.90
72338;DHT22;60294;64.134;-21.862;2022-07-29T15:27:35;18.10;44.60
72338;DHT22;60294;64.134;-21.862;2022-07-29T15:30:01;17.90;45.90
72338;DHT22;60294;64.134;-21.862;2022-07-29T15:32:27;17.60;46.50
72338;DHT22;60294;64.134;-21.862;2022-07-29T15:34:52;17.10;47.20
72338;DHT22;60294;64.134;-21.862;2022-07-29T15:37:18;16.90;47.80
72338;DHT22;60294;64.134;-21.862;2022-07-29T15:39:44;16.40;48.80
72338;DHT22;60294;64.134;-21.862;2022-07-29T15:42:10;16.50;49.40
72338;DHT22;60294;64.134;-21.862;2022-07-29T15:44:36;16.50;49.50
72338;DHT22;60294;64.134;-21.862;2022-07-29T15:47:01;16.60;48.90
72338;DHT22;60294;64.134;-21.862;2022-07-29T15:49:34;16.80;49.00
72338;DHT22;60294;64.134;-21.862;2022-07-29T15:52:01;16.80;50.10
72338;DHT22;60294;64.134;-21.862;2022-07-29T15:54:29;16.70;50.10
72338;DHT22;60294;64.134;-21.862;2022-07-29T15:56:55;16.60;50.00
72338;DHT22;60294;64.134;-21.862;2022-07-29T15:59:22;16.60;48.80
72338;DHT22;60294;64.134;-21.862;2022-07-29T16:01:48;16.40;49.10
72338;DHT22;60294;64.134;-21.862;2022-07-29T16:04:14;16.30;50.00